createdAt,value
2023-02-15T00:01:59.390Z,51.30
2023-02-15T00:07:05.115Z,51.48
2023-02-15T00:12:10.572Z,50.07
2023-02-15T00:17:14.079Z,48.63
2023-02-15T00:22:17.474Z,43.49
2023-02-15T00:27:22.236Z,44.82
2023-02-15T00:32:25.652Z,43.98
2023-02-15T00:37:29.016Z,44.87
2023-02-15T00:42:33.813Z,43.70
2023-02-15T00:47:37.181Z,43.21
2023-02-15T00:52:40.599Z,57.63
2023-02-15T00:57:45.341Z,45.86
2023-02-15T01:02:50.902Z,45.09
2023-02-15T01:07:54.731Z,41.90
2023-02-15T01:12:59.644Z,42.28
2023-02-15T01:18:04.160Z,43.00
2023-02-15T01:23:08.102Z,43.75
2023-02-15T01:28:12.963Z,43.94
2023-02-15T01:33:19.061Z,43.56
2023-02-15T01:38:23.008Z,42.90
2023-02-15T01:43:41.291Z,42.63
2023-02-15T01:48:52.698Z,49.30
2023-02-15T01:54:02.217Z,50.76
2023-02-15T01:59:10.065Z,49.05
2023-02-15T02:04:20.164Z,46.51
2023-02-15T02:09:23.648Z,46.15
2023-02-15T02:14:28.794Z,47.68
2023-02-15T02:19:48.027Z,49.05
2023-02-15T02:25:19.618Z,49.24
2023-02-15T02:30:37.954Z,50.31
2023-02-15T02:35:52.110Z,49.09
2023-02-15T02:41:08.028Z,50.44
2023-02-15T02:46:19.073Z,48.50
2023-02-15T02:51:25.476Z,47.55
2023-02-15T02:56:31.649Z,45.03
2023-02-15T03:01:42.930Z,45.57
2023-02-15T03:06:51.024Z,45.20
2023-02-15T03:11:55.656Z,45.98
2023-02-15T03:17:04.058Z,47.47
2023-02-15T03:22:13.632Z,49.22
2023-02-15T03:27:21.306Z,47.49
2023-02-15T03:32:28.273Z,48.94
2023-02-15T03:37:39.546Z,46.01
2023-02-15T03:42:47.602Z,47.46
2023-02-15T03:47:54.804Z,46.61
2023-02-15T03:53:02.840Z,43.52
2023-02-15T03:58:23.910Z,44.64
2023-02-15T04:03:34.426Z,47.40
2023-02-15T04:09:02.049Z,47.53
2023-02-15T04:14:25.636Z,46.92
2023-02-15T04:19:46.770Z,48.78
2023-02-15T04:25:08.939Z,45.92
2023-02-15T04:30:13.769Z,55.59
2023-02-15T04:35:17.588Z,49.09
2023-02-15T04:40:24.487Z,48.27
2023-02-15T04:45:28.206Z,45.63
2023-02-15T04:50:31.688Z,45.30
2023-02-15T04:55:38.793Z,45.93
2023-02-15T05:00:42.346Z,50.29
2023-02-15T05:05:47.992Z,47.99
2023-02-15T05:10:52.727Z,48.40
2023-02-15T05:15:58.488Z,46.86
2023-02-15T05:21:01.927Z,49.83
2023-02-15T05:26:24.226Z,47.42
2023-02-15T05:31:29.931Z,44.27
2023-02-15T05:36:33.378Z,47.86
2023-02-15T05:41:38.152Z,51.75
2023-02-15T05:46:41.631Z,48.85
2023-02-15T05:51:44.991Z,49.14
2023-02-15T05:56:54.373Z,53.37
2023-02-15T06:02:03.165Z,49.86
2023-02-15T06:07:06.568Z,48.68
2023-02-15T06:12:15.978Z,49.03
2023-02-15T06:17:19.527Z,49.57
2023-02-15T06:22:22.859Z,47.93
2023-02-15T06:27:29.649Z,47.08
2023-02-15T06:32:35.415Z,43.78
2023-02-15T06:37:38.794Z,51.79
2023-02-15T06:42:44.680Z,51.71
2023-02-15T06:47:50.774Z,51.15
2023-02-15T06:52:57.960Z,48.15
2023-02-15T06:58:04.830Z,47.92
2023-02-15T07:03:08.313Z,46.30
2023-02-15T07:08:11.714Z,49.03
2023-02-15T07:13:16.507Z,49.08
2023-02-15T07:18:22.409Z,46.55
2023-02-15T07:23:26.329Z,48.97
2023-02-15T07:28:31.444Z,51.46
2023-02-15T07:33:35.097Z,52.37
2023-02-15T07:38:42.344Z,52.08
2023-02-15T07:43:49.523Z,51.88
2023-02-15T07:48:55.481Z,51.50
2023-02-15T07:54:01.320Z,52.49
2023-02-15T07:59:06.197Z,48.96
2023-02-15T08:04:13.022Z,49.93
2023-02-15T08:09:16.509Z,48.91
2023-02-15T08:14:23.211Z,51.97
2023-02-15T08:19:27.826Z,48.76
2023-02-15T08:24:34.652Z,49.50
2023-02-15T08:29:40.669Z,51.23
2023-02-15T08:34:46.480Z,53.48
2023-02-15T08:39:49.881Z,52.45
2023-02-15T08:44:54.773Z,60.16
2023-02-15T08:49:58.277Z,51.14
2023-02-15T08:55:01.656Z,52.10
2023-02-15T09:00:11.369Z,49.06
2023-02-15T09:05:14.771Z,51.16
2023-02-15T09:10:21.159Z,43.07
2023-02-15T09:15:26.064Z,42.19
2023-02-15T09:20:31.563Z,41.93
2023-02-15T09:25:37.810Z,42.13
2023-02-15T09:30:42.665Z,57.24
2023-02-15T09:35:48.860Z,42.97
2023-02-15T09:40:59.060Z,39.70
2023-02-15T09:46:18.049Z,44.22
2023-02-15T09:51:36.300Z,44.14
2023-02-15T09:56:48.394Z,42.65
2023-02-15T10:02:04.844Z,40.70
2023-02-15T10:07:18.570Z,41.24
2023-02-15T10:12:41.189Z,39.59
2023-02-15T10:17:56.360Z,39.77
2023-02-15T10:23:16.025Z,39.73
2023-02-15T10:28:25.857Z,43.47
2023-02-15T10:33:40.225Z,49.21
2023-02-15T10:38:52.285Z,46.19
2023-02-15T10:44:08.091Z,43.03
2023-02-15T10:49:31.585Z,48.19
2023-02-15T10:54:44.833Z,42.47
2023-02-15T11:00:03.061Z,39.67
2023-02-15T11:05:22.735Z,42.73
2023-02-15T11:10:32.387Z,41.88
2023-02-15T11:15:39.031Z,45.74
2023-02-15T11:20:49.776Z,44.66
2023-02-15T11:25:58.857Z,41.75
2023-02-15T11:31:15.387Z,45.62
2023-02-15T11:36:22.736Z,47.53
2023-02-15T11:41:32.211Z,50.01
2023-02-15T11:46:36.029Z,51.41
2023-02-15T11:51:43.051Z,49.85
2023-02-15T11:56:47.774Z,47.33
2023-02-15T12:01:52.432Z,46.16
2023-02-15T12:07:02.725Z,48.20
2023-02-15T12:12:25.846Z,46.24
2023-02-15T12:17:31.549Z,58.29
2023-02-15T12:22:38.200Z,44.74
2023-02-15T12:27:45.083Z,44.73
2023-02-15T12:32:52.789Z,47.47
2023-02-15T12:38:02.468Z,51.32
2023-02-15T12:43:27.056Z,53.02
2023-02-15T12:48:32.563Z,59.16
2023-02-15T12:53:37.473Z,57.53
2023-02-15T12:58:43.225Z,46.50
2023-02-15T13:03:58.472Z,43.69
2023-02-15T13:09:08.802Z,42.00
2023-02-15T13:14:20.305Z,41.44
2023-02-15T13:19:30.326Z,47.96
2023-02-15T13:24:38.595Z,53.92
2023-02-15T13:29:45.335Z,55.04
2023-02-15T13:34:48.805Z,57.77
2023-02-15T13:39:57.722Z,56.20
2023-02-15T13:45:21.387Z,59.89
2023-02-15T13:50:41.657Z,60.07
2023-02-15T13:55:52.696Z,59.19
2023-02-15T14:01:07.116Z,59.93
2023-02-15T14:06:18.860Z,60.16
2023-02-15T14:11:32.104Z,64.07
2023-02-15T14:16:48.028Z,58.63
2023-02-15T14:22:03.598Z,57.57
2023-02-15T14:27:16.658Z,63.32
2023-02-15T14:32:27.354Z,62.06
2023-02-15T14:37:42.598Z,61.70
2023-02-15T14:42:52.673Z,57.47
2023-02-15T14:48:06.360Z,54.85
2023-02-15T14:53:40.264Z,58.96
2023-02-15T14:58:58.584Z,68.34
2023-02-15T15:04:05.722Z,72.12
2023-02-15T15:09:14.039Z,62.82
2023-02-15T15:14:36.115Z,63.46
2023-02-15T15:20:09.330Z,61.76
2023-02-15T15:25:32.151Z,75.66
2023-02-15T15:30:53.293Z,74.30
2023-02-15T15:36:10.497Z,69.11
2023-02-15T15:41:20.319Z,65.67
2023-02-15T15:46:41.031Z,59.59
2023-02-15T15:51:46.467Z,59.09
2023-02-15T15:56:55.684Z,64.65
2023-02-15T16:02:07.994Z,69.53
2023-02-15T16:07:27.973Z,72.04
2023-02-15T16:12:36.983Z,73.32
2023-02-15T16:17:45.720Z,63.55
2023-02-15T16:23:00.097Z,71.33
2023-02-15T16:28:09.528Z,66.10
2023-02-15T16:33:16.655Z,57.74
2023-02-15T16:38:36.302Z,61.43
2023-02-15T16:43:44.600Z,54.63
2023-02-15T16:48:52.874Z,60.52
2023-02-15T16:54:04.985Z,57.75
2023-02-15T16:59:08.721Z,59.23
2023-02-15T17:04:29.628Z,60.71
2023-02-15T17:09:35.768Z,60.35
2023-02-15T17:14:41.814Z,60.95
2023-02-15T17:19:51.830Z,57.81
2023-02-15T17:25:01.000Z,59.89
2023-02-15T17:30:16.006Z,62.11
2023-02-15T17:35:21.904Z,59.97
2023-02-15T17:40:26.800Z,57.75
2023-02-15T17:45:34.294Z,57.13
2023-02-15T17:50:39.328Z,57.76
2023-02-15T17:55:43.647Z,58.90
2023-02-15T18:01:09.217Z,61.35
2023-02-15T18:06:32.559Z,57.76
2023-02-15T18:11:37.467Z,63.17
2023-02-15T18:16:45.820Z,58.03
2023-02-15T18:21:55.735Z,59.43
2023-02-15T18:26:59.200Z,60.82
2023-02-15T18:32:03.069Z,53.56
2023-02-15T18:37:13.551Z,65.35
2023-02-15T18:42:20.765Z,53.75
2023-02-15T18:47:24.233Z,53.93
2023-02-15T18:52:34.676Z,54.91
2023-02-15T18:57:38.275Z,58.88
2023-02-15T19:02:41.687Z,65.39
2023-02-15T19:07:48.590Z,57.69
2023-02-15T19:12:53.071Z,56.77
2023-02-15T19:17:56.852Z,59.02
2023-02-15T19:23:03.093Z,69.73
2023-02-15T19:28:10.274Z,72.71
2023-02-15T19:33:18.074Z,66.57
2023-02-15T19:38:26.901Z,62.15
2023-02-15T19:43:33.370Z,67.75
2023-02-15T19:48:39.279Z,69.33
2023-02-15T19:53:46.632Z,70.44
2023-02-15T19:58:51.727Z,75.76
2023-02-15T20:03:55.699Z,72.55
2023-02-15T20:09:00.624Z,70.89
2023-02-15T20:14:07.030Z,77.76
2023-02-15T20:19:13.400Z,74.99
2023-02-15T20:24:20.411Z,72.22
2023-02-15T20:29:23.797Z,74.09
2023-02-15T20:34:27.266Z,75.05
2023-02-15T20:39:35.181Z,74.97
2023-02-15T20:44:39.484Z,71.24
2023-02-15T20:49:42.959Z,70.61
2023-02-15T20:54:48.213Z,73.30
2023-02-15T20:59:51.684Z,73.51
2023-02-15T21:04:55.557Z,70.94
2023-02-15T21:10:00.576Z,71.65
2023-02-15T21:15:24.843Z,76.10
2023-02-15T21:20:29.517Z,79.68
2023-02-15T21:25:36.654Z,75.18
2023-02-15T21:30:40.128Z,78.43
2023-02-15T21:35:44.983Z,74.06
2023-02-15T21:40:50.137Z,76.74
2023-02-15T21:46:10.541Z,75.64
2023-02-15T21:51:34.033Z,74.30
2023-02-15T21:56:38.753Z,77.27
2023-02-15T22:01:43.951Z,77.72
2023-02-15T22:06:47.552Z,77.44
2023-02-15T22:11:56.092Z,78.09
2023-02-15T22:16:59.503Z,75.16
2023-02-15T22:22:05.461Z,74.39
2023-02-15T22:27:18.895Z,77.33
2023-02-15T22:32:26.442Z,78.30
2023-02-15T22:37:29.896Z,79.11
2023-02-15T22:42:34.858Z,83.94
2023-02-15T22:47:40.753Z,86.04
2023-02-15T22:52:44.145Z,87.76
2023-02-15T22:57:52.419Z,91.57
2023-02-15T23:02:56.838Z,91.76
2023-02-15T23:08:02.960Z,95.35
2023-02-15T23:13:25.432Z,96.81
2023-02-15T23:18:33.575Z,97.75
2023-02-15T23:23:38.916Z,98.73
2023-02-15T23:28:43.775Z,97.70
2023-02-15T23:33:52.629Z,99.44
2023-02-15T23:39:22.544Z,101.22
2023-02-15T23:44:31.257Z,98.27
2023-02-15T23:49:34.911Z,102.73
2023-02-15T23:54:38.385Z,100.33
2023-02-15T23:59:45.939Z,99.81
